Site contains unofficial IBTrACS data. Visit the IBTrACS Website to access archived data.

1955 Tropical Low NOT_NAMED (1955341S20167)


IBTrACS version v04r00. Visit IBTrACS website for data access.
Please direct all questions to the IBTrACS Q and A forum

Storm track - Intensity - Wind Radii - Intensity Data - Source Data - All data

Summary Information

Storm ID 1955341S20167
Start Dec 6 23Z
Landfall Dec 11 05Z, Dec 12 15Z
Max Intensity 30 kt (Dec 10 06Z)
End Dec 16 05Z
ATCF IDs ,SH021956
Track status Best track data.

Storm track plot

Map of storm track

Intensity plots

Map of storm track

Radial wind information

No radial wind information for this storm


Position and Intensity Table

BASIN ISO_TIME_________ NATURE LAT LON WMO PRES BOM PRES DS824 WIND DS824 PRES
degrees north degrees east mb mb kts mb
SP 1955-12-06 23:00:00 NR -20.40 166.50 1006 1006
SP 1955-12-07 00:00:00 TS -20.58 166.80 1006 15 1006
SP 03:00:00 TS -21.16 167.61 1006 15 1006
SP 05:00:00 TS -21.65 168.03 1006 1006 15 1006
SP 06:00:00 TS -21.95 168.18 1005 15 1006
SP 09:00:00 TS -22.97 168.45 1005 16 1005
SP 12:00:00 TS -24.14 168.44 1005 17 1005
SP 15:00:00 TS -25.29 168.21 1005 18 1005
SP 17:00:00 TS -25.99 167.97 1005 1005 19 1005
SP 18:00:00 TS -26.29 167.83 1005 20 1005
SP 21:00:00 TS -27.07 167.36 1005 20 1005
SP 23:00:00 TS -27.54 166.99 1005 1005 20 1005
SP 1955-12-08 00:00:00 TS -27.79 166.82 1005 20 1005
SP 03:00:00 TS -28.53 166.32 1005 20 1005
SP 05:00:00 TS -28.93 165.95 1005 1005 20 1005
SP 06:00:00 TS -29.07 165.75 1005 20 1005
SP 09:00:00 TS -29.29 165.08 1005 20 1005
SP 11:00:00 TS -29.28 164.60 1005 20 1005
SP 12:00:00 TS -29.22 164.33 1005 20 1005
SP 15:00:00 TS -29.10 163.45 1005 20 1005
SP 17:00:00 TS -29.02 162.84 1005 1005 20 1005
SP 18:00:00 TS -29.00 162.55 1004 20 1005
SP 21:00:00 TS -28.92 161.74 1004 20 1004
SP 23:00:00 TS -28.86 161.21 1004 1004 20 1004
SP 1955-12-09 00:00:00 TS -28.83 160.93 1003 20 1004
SP 03:00:00 TS -28.70 160.08 1003 22 1003
SP 05:00:00 TS -28.59 159.57 1003 1003 24 1003
SP 06:00:00 TS -28.53 159.37 1003 25 1003
SP 09:00:00 TS -28.34 158.94 1003 25 1003
SP 11:00:00 TS -28.18 158.74 1003 25 1003
SP 12:00:00 TS -28.10 158.66 1003 25 1003
SP 15:00:00 TS -27.79 158.46 1003 25 1003
SP 17:00:00 TS -27.57 158.29 1003 1003 25 1003
SP 18:00:00 TS -27.46 158.17 1002 25 1003
SP 21:00:00 TS -27.16 157.74 1002 25 1002
SP 23:00:00 TS -26.99 157.43 1002 1002 25 1002
SP 1955-12-10 00:00:00 TS -26.91 157.29 1001 25 1002
SP 03:00:00 TS -26.72 156.89 1001 27 1001
SP 05:00:00 TS -26.64 156.61 1001 1001 29 1001
SP 06:00:00 TS -26.63 156.46 1001 30 1001
SP 09:00:00 TS -26.65 155.94 1001 30 1001
SP 11:00:00 TS -26.71 155.57 1001 30 1001
SP 12:00:00 TS -26.76 155.38 1001 30 1001
SP 15:00:00 TS -26.92 154.82 1001 30 1001
SP 17:00:00 TS -27.03 154.47 1001 1001 30 1001
SP 18:00:00 TS -27.09 154.31 1001 30 1001
SP 21:00:00 TS -27.22 153.88 1001 27 1001
SP 23:00:00 TS -27.27 153.63 1002 1002 25 1001
SP 1955-12-11 00:00:00 TS -27.27 153.52 1002 25 1002
SP 03:00:00 TS -27.20 153.21 1002 25 1002
SP 05:00:00 TS -27.16 153.02 1003 1003 25 1002
SP 06:00:00 TS -27.17 152.93 1003 25 1003
SP 09:00:00 TS -27.32 152.64 1003 23 1003
SP 11:00:00 TS -27.45 152.43 1003 22 1003
SP 12:00:00 TS -27.52 152.31 1003 22 1003
SP 15:00:00 TS -27.69 151.91 1003 21 1003
SP 17:00:00 TS -27.76 151.65 1004 1004 20 1003
SP 18:00:00 TS -27.77 151.53 1004 20 1004
SP 21:00:00 TS -27.77 151.15 1004 20 1004
SP 23:00:00 TS -27.79 151.06 1004 1004 20 1004
SP 1955-12-12 00:00:00 TS -27.81 151.13 1004 20 1004
SP 03:00:00 TS -27.91 151.78 1004 20 1004
SP 05:00:00 TS -28.02 152.39 1005 1005 20 1004
SP 06:00:00 TS -27.99 152.55 20 1005
SP 09:00:00 TS -28.09 153.39
SP 11:00:00 TS -28.08 153.68
SP 12:00:00 TS -27.89 153.46
SP 15:00:00 TS -28.11 152.06
SP 17:00:00 TS -28.25 150.80 1007
SP 18:00:00 TS -28.32 150.24
SP 21:00:00 TS -28.57 149.07
SP 23:00:00 TS -28.72 148.75 1007
SP 1955-12-13 00:00:00 TS -28.77 148.83
SP 03:00:00 TS -28.83 149.85
SP 05:00:00 TS -28.84 150.88 1007
SP 06:00:00 TS -28.86 151.40
SP 09:00:00 TS -28.93 152.75
SP 11:00:00 TS -29.08 153.57
SP 12:00:00 TS -29.22 153.92
SP 15:00:00 TS -29.93 154.88
SP 18:00:00 TS -30.78 155.72
SP 21:00:00 TS -31.52 156.48
SP 23:00:00 TS -31.95 156.91 1005
SP 1955-12-14 00:00:00 TS -32.13 157.10
SP 03:00:00 TS -32.69 157.83
SP 06:00:00 TS -33.21 158.71
SP 09:00:00 TS -33.35 158.58
SP 11:00:00 TS -33.42 158.53
SP 12:00:00 TS -33.49 158.69
SP 15:00:00 TS -33.62 159.17
SP 18:00:00 TS -33.72 159.69
SP 21:00:00 TS -33.89 160.23
SP 23:00:00 TS -34.02 160.61 1004
SP 1955-12-15 00:00:00 TS -34.09 160.80
SP 03:00:00 TS -34.29 161.39
SP 05:00:00 TS -34.43 161.79 1003
SP 06:00:00 TS -34.51 161.98
SP 09:00:00 TS -34.79 162.55
SP 11:00:00 TS -35.00 162.92
SP 12:00:00 TS -35.49 163.63
SP 15:00:00 TS -36.10 164.51
SP 18:00:00 TS -36.72 165.25
SP 21:00:00 TS -37.25 165.76
SP 23:00:00 TS -37.44 165.86 1005 1005
SP 1955-12-16 00:00:00 TS -37.66 165.99 1005 20 1005
SP 03:00:00 NR -37.85 165.98 1007
SP 05:00:00 NR -38.00 166.00 1009 1009

Source Information

Agency Information
USA bsh021956.txt
TOKYO
CMA
HKO
NEWDELHI
REUNION
BOM IDCKMSTM0S.csv:Line=2022:unnamed
NADI
WELLINGTON
DS824 aus_area.dat:214:NOT NAMED
TD9636 cons_worldwide_trop_cyclone_18710101-19891231-006:Line=4360
TD9635
NEUMANN
MLC

All available IBTrACS Data

SEASON BASIN SUBBASIN ISO_TIME_________ NATURE LAT LON WMO PRES WMO AGENCY DIST2LAND LANDFALL IFLAG USA AGENCY USA ATCF_ID USA LAT USA LON USA SSHS BOM LAT BOM LON BOM PRES BOM PRES_METHOD DS824 LAT DS824 LON DS824 STAGE DS824 WIND DS824 PRES TD9636 LAT TD9636 LON TD9636 STAGE STORM SPEED STORM DIR
Year degrees north degrees east mb km km degrees north degrees east 1 degrees north degrees east mb degrees north degrees east kts mb degrees north degrees east kts degrees
1956 SP MM 1955-12-06 23:00:00 NR -20.40 166.50 1006 bom 129 123 ______O_______ -1 -20.40 166.50 1006 20 122
1956 SP MM 1955-12-07 00:00:00 TS -20.58 166.80 124 121 ______P__O____ -1 -20.56 166.81 1006 -20.60 166.80 TC 15 1006 19 126
1956 SP MM 03:00:00 TS -21.16 167.61 123 121 ______P__P____ -1 -21.12 167.66 1006 -21.23 167.53 TC 15 1006 19 133
1956 SP MM 05:00:00 TS -21.65 168.03 1006 bom 117 117 ______O__P____ -1 -21.60 168.10 1006 -21.72 167.94 TC 15 1006 19 146
1956 SP MM 06:00:00 TS -21.95 168.18 128 124 ______P__O____ -1 -21.89 168.26 1005 -22.00 168.10 TC 15 1006 21 163
1956 SP MM 09:00:00 TS -22.97 168.45 172 172 ______P__P____ -1 -22.95 168.53 1005 -22.99 168.38 TC 16 1005 22 174
1956 SP MM 12:00:00 TS -24.14 168.44 244 244 ______P__P____ -1 -24.14 168.50 1005 -24.13 168.38 TC 17 1005 23 185
1956 SP MM 15:00:00 TS -25.29 168.21 349 349 ______P__P____ -1 -25.31 168.26 1005 -25.28 168.17 TC 18 1005 23 193
1956 SP MM 17:00:00 TS -25.99 167.97 1005 bom 417 414 ______O__P____ -1 -26.00 168.00 1005 -25.98 167.94 TC 19 1005 21 199
1956 SP MM 18:00:00 TS -26.29 167.83 445 445 ______P__O____ -1 -26.28 167.87 1005 -26.30 167.80 TC 20 1005 18 207
1956 SP MM 21:00:00 TS -27.07 167.36 527 526 ______P__P____ -1 -27.02 167.37 1005 -27.11 167.35 TC 20 1005 18 211
1956 SP MM 23:00:00 TS -27.54 166.99 1005 bom 569 569 ______O__P____ -1 -27.50 167.00 1005 -27.58 166.99 TC 20 1005 17 213
1956 SP MM 1955-12-08 00:00:00 TS -27.79 166.82 603 603 ______P__O____ -1 -27.78 166.84 1005 -27.80 166.80 TC 20 1005 17 211
1956 SP MM 03:00:00 TS -28.53 166.32 682 682 ______P__P____ -1 -28.58 166.36 1005 -28.48 166.28 TC 20 1005 17 214
1956 SP MM 05:00:00 TS -28.93 165.95 1005 bom 729 729 ______O__P____ -1 -29.00 166.00 1005 -28.85 165.90 TC 20 1005 15 223
1956 SP MM 06:00:00 TS -29.07 165.75 755 755 ______P__O____ -1 -29.14 165.80 1005 -29.00 165.70 TC 20 1005 13 244
1956 SP MM 09:00:00 TS -29.29 165.08 787 787 ______P__P____ -1 -29.33 165.11 1005 -29.25 165.04 TC 20 1005 12 258
1956 SP MM 11:00:00 TS -29.28 164.60 798 793 ______P__PO___ -1 -29.32 164.61 1005 -29.29 164.56 TC 20 1005 -29.10 164.70 7 13 276
1956 SP MM 12:00:00 TS -29.22 164.33 796 796 O_____P__PP___ jtwc_sh SH021956 -29.10 164.30 -1 -29.28 164.35 1005 -29.28 164.31 TC 20 1005 -29.09 164.37 7 15 280
1956 SP MM 15:00:00 TS -29.10 163.45 816 816 P_____P__PP___ SH021956 -29.05 163.32 -1 -29.12 163.54 1005 -29.17 163.52 TC 20 1005 -29.06 163.40 7 16 279
1956 SP MM 17:00:00 TS -29.02 162.84 1005 bom 830 830 P_____O__PP___ SH021956 -29.01 162.69 -1 -29.00 163.00 1005 -29.06 162.98 TC 20 1005 -29.03 162.78 7 16 277
1956 SP MM 18:00:00 TS -29.00 162.55 844 797 O_____P__OP___ jtwc_sh SH021956 -29.00 162.40 -1 -28.98 162.76 1004 -29.00 162.70 TC 20 1005 -29.01 162.47 7 15 276
1956 SP MM 21:00:00 TS -28.92 161.74 787 748 P_____P__PP___ SH021956 -28.96 161.60 -1 -28.88 162.00 1004 -28.86 161.88 TC 20 1004 -28.95 161.62 7 14 277
1956 SP MM 23:00:00 TS -28.86 161.21 1004 bom 738 719 P_____O__PO___ SH021956 -28.93 161.12 -1 -28.80 161.40 1004 -28.75 161.30 TC 20 1004 -28.90 161.10 7 14 278
1956 SP MM 1955-12-09 00:00:00 TS -28.83 160.93 710 632 O_____P__OP___ jtwc_sh SH021956 -28.90 160.90 -1 -28.76 161.01 1003 -28.70 161.00 TC 20 1004 -28.87 160.86 7 15 279
1956 SP MM 03:00:00 TS -28.70 160.08 632 584 P_____P__PP___ SH021956 -28.77 160.25 -1 -28.62 159.74 1003 -28.56 159.94 TC 22 1003 -28.77 160.22 7 15 281
1956 SP EA 05:00:00 TS -28.59 159.57 1003 bom 584 565 P_____O__PP___ SH021956 -28.66 159.88 -1 -28.50 159.00 1003 -28.46 159.28 TC 24 1003 -28.68 159.84 7 13 285
1956 SP EA 06:00:00 TS -28.53 159.37 565 527 O_____P__OP___ jtwc_sh SH021956 -28.60 159.70 -1 -28.43 158.79 1003 -28.40 159.00 TC 25 1003 -28.63 159.67 7 9 294
1956 SP EA 09:00:00 TS -28.34 158.94 518 508 P_____P__PP___ SH021956 -28.43 159.21 -1 -28.20 158.50 1003 -28.18 158.57 TC 25 1003 -28.45 159.19 7 8 302
1956 SP EA 11:00:00 TS -28.18 158.74 499 499 P_____P__PO___ SH021956 -28.29 158.93 -1 -28.03 158.49 1003 -28.02 158.47 TC 25 1003 -28.30 158.90 7 7 315
1956 SP EA 12:00:00 TS -28.10 158.66 499 481 O_____P__PP___ jtwc_sh SH021956 -28.20 158.80 -1 -27.94 158.52 1003 -27.93 158.45 TC 25 1003 -28.20 158.76 7 7 328
1956 SP EA 15:00:00 TS -27.79 158.46 482 466 P_____P__PP___ SH021956 -27.86 158.45 -1 -27.68 158.57 1003 -27.67 158.43 TC 25 1003 -27.86 158.38 7 7 328
1956 SP EA 17:00:00 TS -27.57 158.29 1003 bom 466 458 P_____O__PP___ SH021956 -27.62 158.22 -1 -27.50 158.50 1003 -27.49 158.37 TC 25 1003 -27.62 158.14 7 8 322
1956 SP EA 18:00:00 TS -27.46 158.17 458 427 O_____P__OP___ jtwc_sh SH021956 -27.50 158.10 -1 -27.42 158.35 1002 -27.40 158.30 TC 25 1003 -27.50 158.03 7 10 310
1956 SP EA 21:00:00 TS -27.16 157.74 418 406 P_____P__PP___ SH021956 -27.16 157.67 -1 -27.17 157.82 1002 -27.14 157.85 TC 25 1002 -27.17 157.67 7 10 306
1956 SP EA 23:00:00 TS -26.99 157.43 1002 bom 397 392 P_____O__PO___ SH021956 -26.97 157.36 -1 -27.00 157.50 1002 -26.98 157.54 TC 25 1002 -27.00 157.40 7 9 302
1956 SP EA 1955-12-10 00:00:00 TS -26.91 157.29 392 365 O_____P__OP___ jtwc_sh SH021956 -26.90 157.20 -1 -26.90 157.40 1001 -26.90 157.40 TC 25 1002 -26.94 157.25 7 8 299
1956 SP EA 03:00:00 TS -26.72 156.89 365 341 P_____P__PP___ SH021956 -26.75 156.72 -1 -26.63 157.16 1001 -26.66 157.09 TC 27 1001 -26.81 156.76 7 8 294
1956 SP EA 05:00:00 TS -26.64 156.61 1001 bom 341 331 P_____O__PP___ SH021956 -26.71 156.38 -1 -26.50 157.00 1001 4 -26.54 156.90 TC 29 1001 -26.76 156.41 7 8 283
1956 SP EA 06:00:00 TS -26.63 156.46 331 283 O_____P__OP___ jtwc_sh SH021956 -26.70 156.20 -1 -26.47 156.86 1001 -26.50 156.80 TC 30 1001 -26.75 156.23 7 9 270
1956 SP EA 09:00:00 TS -26.65 155.94 273 241 P_____P__PP___ SH021956 -26.71 155.67 -1 -26.51 156.36 1001 -26.54 156.33 TC 30 1001 -26.76 155.68 7 10 264
1956 SP EA 11:00:00 TS -26.71 155.57 241 220 P_____P__PO___ SH021956 -26.76 155.29 -1 -26.60 155.98 1001 -26.64 155.98 TC 30 1001 -26.80 155.30 7 10 258
1956 SP EA 12:00:00 TS -26.76 155.38 220 159 O_____P__PP___ jtwc_sh SH021956 -26.80 155.10 -1 -26.66 155.80 1001 -26.71 155.80 TC 30 1001 -26.82 155.11 7 11 253
1956 SP EA 15:00:00 TS -26.92 154.82 159 129 P_____P__PP___ SH021956 -26.94 154.50 -1 -26.87 155.27 1001 -26.92 155.29 TC 30 1001 -26.92 154.52 7 10 251
1956 SP EA 17:00:00 TS -27.03 154.47 1001 bom 129 108 P_____O__PP___ SH021956 -27.05 154.10 -1 -27.00 155.00 1001 -27.05 155.01 TC 30 1001 -27.01 154.12 7 10 250
1956 SP EA 18:00:00 TS -27.09 154.31 108 68 O_____P__OP___ jtwc_sh SH021956 -27.10 153.90 -1 -27.08 154.90 1001 -27.10 154.90 TC 30 1001 -27.06 153.93 7 8 250
1956 SP EA 21:00:00 TS -27.22 153.88 68 45 P_____P__PP___ SH021956 -27.21 153.32 -1 -27.28 154.70 1001 -27.21 154.72 TC 27 1001 -27.21 153.36 7 8 253
1956 SP EA 23:00:00 TS -27.27 153.63 1002 bom 37 29 P_____O__PO___ SH021956 -27.27 152.96 -1 -27.30 154.60 1002 -27.22 154.64 TC 25 1001 -27.30 153.00 7 7 261
1956 SP EA 1955-12-11 00:00:00 TS -27.27 153.52 29 9 O_____P__OP___ jtwc_sh SH021956 -27.30 152.80 -1 -27.22 154.56 1002 -27.20 154.60 TC 25 1002 -27.34 152.84 7 6 281
1956 SP EA 03:00:00 TS -27.20 153.21 9 0 P_____P__PP___ SH021956 -27.41 152.38 -1 -26.81 154.46 1002 -26.94 154.45 TC 25 1002 -27.45 152.40 7 5 284
1956 SP EA 05:00:00 TS -27.16 153.02 1003 bom 0 0 P_____O__PP___ SH021956 -27.47 152.13 -1 -26.60 154.40 1003 -26.75 154.35 TC 25 1002 -27.51 152.12 7 5 277
1956 SP EA 06:00:00 TS -27.17 152.93 0 0 O_____P__OP___ jtwc_sh SH021956 -27.50 152.00 -1 -26.62 154.36 1003 -26.70 154.30 TC 25 1003 -27.53 151.98 7 6 246
1956 SP EA 09:00:00 TS -27.32 152.64 0 0 P_____P__PP___ SH021956 -27.58 151.62 -1 -26.94 154.21 1003 -26.90 154.16 TC 23 1003 -27.59 151.58 7 6 237
1956 SP EA 11:00:00 TS -27.45 152.43 0 0 P_____P__PO___ SH021956 -27.60 151.34 -1 -27.28 154.10 1003 -27.18 154.07 TC 22 1003 -27.60 151.30 7 7 235
1956 SP EA 12:00:00 TS -27.52 152.31 0 0 O_____P__PP___ jtwc_sh SH021956 -27.60 151.20 -1 -27.47 154.05 1003 -27.35 154.03 TC 22 1003 -27.59 151.07 7 8 243
1956 SP EA 15:00:00 TS -27.69 151.91 0 0 P_____P__PP___ SH021956 -27.52 150.70 -1 -28.02 153.89 1003 -27.87 153.91 TC 21 1003 -27.50 150.35 7 8 248
1956 SP EA 17:00:00 TS -27.76 151.65 1004 bom 0 0 P_____O__PP___ SH021956 -27.44 150.36 -1 -28.30 153.80 1004 -28.18 153.84 TC 20 1003 -27.43 149.91 7 7 256
1956 SP EA 18:00:00 TS -27.77 151.53 0 0 O_____P__OP___ jtwc_sh SH021956 -27.40 150.20 -1 -28.35 153.75 1004 -28.30 153.80 TC 20 1004 -27.40 149.72 7 7 268
1956 SP EA 21:00:00 TS -27.77 151.15 0 0 P_____P__PP___ SH021956 -27.32 149.55 -1 -28.45 153.63 1004 -28.47 153.65 TC 20 1004 -27.32 149.37 7 5 267
1956 SP EA 23:00:00 TS -27.79 151.06 1004 bom 0 0 P_____O__PO___ SH021956 -27.30 149.35 -1 -28.50 153.60 1004 -28.55 153.60 TC 20 1004 -27.30 149.40 7 1 207
1956 SP EA 1955-12-12 00:00:00 TS -27.81 151.13 0 0 O_____P__OP___ jtwc_sh SH021956 -27.30 149.40 -1 -28.54 153.61 1004 -28.60 153.60 TC 20 1004 -27.31 149.66 7 10 101
1956 SP EA 03:00:00 TS -27.91 151.78 0 0 P_____P__PP___ SH021956 -27.37 150.35 -1 -28.69 153.70 1004 -28.79 153.74 TC 20 1004 -27.40 150.81 7 14 101
1956 SP EA 05:00:00 TS -28.02 152.39 1005 bom 0 0 P_____O__PP___ SH021956 -27.45 151.26 -1 -28.80 153.80 1005 -28.93 153.91 TC 20 1004 -27.48 151.72 7 14 97
1956 SP EA 06:00:00 TS -27.99 152.55 0 0 O________OP___ jtwc_sh SH021956 -27.50 151.70 -1 -29.00 154.00 TC 20 1005 -27.52 152.17 7 13 95
1956 SP EA 09:00:00 TS -28.09 153.39 0 0 P_________P___ SH021956 -27.68 153.03 -1 TC -27.68 153.26 7 12 95
1956 SP EA 11:00:00 TS -28.08 153.68 14 14 P_________O___ SH021956 -27.83 153.51 -1 TC -27.80 153.60 7 4 14
1956 SP EA 12:00:00 TS -27.89 153.46 19 0 O_________P___ jtwc_sh SH021956 -27.90 153.50 -1 TC -27.87 153.37 7 21 269
1956 SP EA 15:00:00 TS -28.11 152.06 0 0 P_________P___ SH021956 -28.10 152.03 -1 TC -28.12 152.13 7 28 261
1956 SP EA 17:00:00 TS -28.25 150.80 1007 bom 0 0 P_________P___ SH021956 -28.23 150.68 -1 TC -28.28 151.05 7 32 262
1956 SP EA 18:00:00 TS -28.32 150.24 0 0 O_________P___ jtwc_sh SH021956 -28.30 150.10 -1 TC -28.36 150.51 7 23 258
1956 SP EA 21:00:00 TS -28.57 149.07 0 0 P_________P___ SH021956 -28.57 149.04 -1 TC -28.58 149.11 7 16 253
1956 SP EA 23:00:00 TS -28.72 148.75 1007 bom 0 0 P_________O___ SH021956 -28.73 148.82 -1 TC -28.70 148.60 7 6 225
1956 SP EA 1955-12-13 00:00:00 TS -28.77 148.83 0 0 O_________P___ jtwc_sh SH021956 -28.80 148.90 -1 TC -28.72 148.70 7 15 96
1956 SP EA 03:00:00 TS -28.83 149.85 0 0 P_________P___ SH021956 -28.87 149.99 -1 TC -28.75 149.57 7 21 92
1956 SP EA 05:00:00 TS -28.84 150.88 1007 bom 0 0 P_________P___ SH021956 -28.88 151.07 -1 TC -28.76 150.48 7 27 91
1956 SP EA 06:00:00 TS -28.86 151.40 0 0 O_________P___ jtwc_sh SH021956 -28.90 151.60 -1 TC -28.78 151.00 7 25 93
1956 SP EA 09:00:00 TS -28.93 152.75 0 0 P_________P___ SH021956 -28.94 152.82 -1 TC -28.91 152.61 7 23 97
1956 SP EA 11:00:00 TS -29.08 153.57 14 14 P_________O___ SH021956 -29.07 153.56 -1 TC -29.10 153.60 7 21 106
1956 SP EA 12:00:00 TS -29.22 153.92 44 44 O_________P___ jtwc_sh SH021956 -29.20 153.90 -1 TC -29.27 153.95 7 21 127
1956 SP EA 15:00:00 TS -29.93 154.88 154 154 P_________P___ SH021956 -29.92 154.87 -1 TC -29.95 154.92 7 22 135
1956 SP EA 18:00:00 TS -30.78 155.72 249 249 O_________P___ jtwc_sh SH021956 -30.80 155.70 -1 TC -30.74 155.76 7 21 139
1956 SP EA 21:00:00 TS -31.52 156.48 325 325 P_________P___ SH021956 -31.51 156.48 -1 TC -31.54 156.49 7 19 139
1956 SP EA 23:00:00 TS -31.95 156.91 1005 bom 370 370 P_________O___ SH021956 -31.92 156.92 -1 TC -32.00 156.90 7 16 139
1956 SP EA 1955-12-14 00:00:00 TS -32.13 157.10 394 394 O_________P___ jtwc_sh SH021956 -32.10 157.10 -1 TC -32.18 157.09 7 16 134
1956 SP EA 03:00:00 TS -32.69 157.83 477 477 P_________P___ SH021956 -32.55 157.49 -1 TC -32.62 157.55 7 17 129
1956 SP EA 06:00:00 TS -33.21 158.71 573 567 O_________P___ jtwc_sh SH021956 -32.90 157.80 -1 TC -32.97 157.91 7 9 136
1956 SP EA 09:00:00 TS -33.35 158.58 570 561 P_________P___ SH021956 -33.24 158.23 -1 TC -33.25 158.25 7 3 216
1956 SP EA 11:00:00 TS -33.42 158.53 561 561 P_________O___ SH021956 -33.43 158.54 -1 TC -33.40 158.50 7 3 149
1956 SP EA 12:00:00 TS -33.49 158.69 582 582 O_________P___ jtwc_sh SH021956 -33.50 158.70 -1 TC -33.47 158.66 7 9 111
1956 SP EA 15:00:00 TS -33.62 159.17 630 630 P_________P___ SH021956 -33.61 159.19 -1 TC -33.64 159.15 7 9 106
1956 SP EA 18:00:00 TS -33.72 159.69 677 677 O_________P___ jtwc_sh SH021956 -33.70 159.70 -1 TC -33.77 159.68 7 9 107
1956 SP MM 21:00:00 TS -33.89 160.23 728 728 P_________P___ SH021956 -33.88 160.24 -1 TC -33.90 160.23 7 10 111
1956 SP MM 23:00:00 TS -34.02 160.61 1004 bom 766 766 P_________O___ SH021956 -34.03 160.61 -1 TC -34.00 160.60 7 10 113
1956 SP MM 1955-12-15 00:00:00 TS -34.09 160.80 787 787 O_________P___ jtwc_sh SH021956 -34.10 160.80 -1 TC -34.07 160.79 7 11 112
1956 SP MM 03:00:00 TS -34.29 161.39 846 846 P_________P___ SH021956 -34.28 161.40 -1 TC -34.29 161.37 7 11 113
1956 SP MM 05:00:00 TS -34.43 161.79 1003 bom 885 885 P_________P___ SH021956 -34.42 161.80 -1 TC -34.45 161.76 7 11 115
1956 SP MM 06:00:00 TS -34.51 161.98 905 905 O_________P___ jtwc_sh SH021956 -34.50 162.00 -1 TC -34.53 161.95 7 11 120
1956 SP MM 09:00:00 TS -34.79 162.55 912 894 P_________P___ SH021956 -34.78 162.57 -1 TC -34.81 162.53 7 11 122
1956 SP MM 11:00:00 TS -35.00 162.92 885 833 P_________O___ SH021956 -34.99 162.93 -1 TC -35.00 162.90 7 22 128
1956 SP MM 12:00:00 TS -35.49 163.63 825 754 O_________P___ jtwc_sh SH021956 -35.10 163.10 -1 TC -35.10 163.08 7 26 131
1956 SP MM 15:00:00 TS -36.10 164.51 754 710 P_________P___ SH021956 -35.41 163.61 -1 TC -35.41 163.60 7 18 133
1956 SP MM 18:00:00 TS -36.72 165.25 702 684 O_________P___ jtwc_sh SH021956 -35.70 164.10 -1 TC -35.74 164.10 7 15 139
1956 SP MM 21:00:00 TS -37.25 165.76 673 666 __________P___ SH021956 -1 TC -36.08 164.58 7 10 146
1956 SP MM 23:00:00 TS -37.44 165.86 1005 bom 659 639 ______O___O___ SH021956 -1 -37.60 166.00 1005 TC -36.30 164.90 7 9 156
1956 SP MM 1955-12-16 00:00:00 TS -37.66 165.99 632 626 ______P__O____ -1 -37.67 166.01 1005 -37.70 166.00 TC 20 1005 7 6 167
1956 SP MM 03:00:00 NR -37.85 165.98 626 613 ______P_______ -1 -37.87 166.01 1007 TC 7 4 0
1956 SP MM 05:00:00 NR -38.00 166.00 1009 bom 613 ______O_______ -1 -38.00 166.00 1009 TC 7 5 172